EZY742 EDDF-EHAM
Flight info
| Callsign | EZY742 |
|---|---|
| Flight time | 0h 52m |
| Altitude | 24000 |
| Route | MARUN8M/25C MARUN Y152 ARPEG Z850 ABILU DCT NORKU |
| Aircraft | A320/M-VGDW/C |
Departure
| Time | 2026-04-17 12:54 |
|---|---|
| Airport | Frankfurt Main Airport (EDDF) |
Arrival
| Time | 2026-04-17 13:46 |
|---|---|
| Airport | Amsterdam Airport Schiphol (EHAM) |
| Time | Latitude | Longitude | Altitude | Speed | Heading |
|---|---|---|---|---|---|
| 2026-04-17 12:30 | 50.04747 | 8.57139 | 366 ft | 0 kts | 120° |
| 2026-04-17 12:43 | 50.04755 | 8.57116 | 371 ft | 3 kts | 120° |
| 2026-04-17 12:43 | 50.04765 | 8.57091 | 369 ft | 3 kts | 120° |
| 2026-04-17 12:43 | 50.04774 | 8.57066 | 368 ft | 2 kts | 122° |
| 2026-04-17 12:43 | 50.04786 | 8.57045 | 369 ft | 3 kts | 162° |
| 2026-04-17 12:44 | 50.04800 | 8.57043 | 368 ft | 0 kts | 196° |
| 2026-04-17 12:48 | 50.04797 | 8.57042 | 368 ft | 2 kts | 200° |
| 2026-04-17 12:48 | 50.04757 | 8.57013 | 370 ft | 11 kts | 205° |
| 2026-04-17 12:48 | 50.04661 | 8.56944 | 372 ft | 18 kts | 205° |
| 2026-04-17 12:48 | 50.04551 | 8.56890 | 371 ft | 17 kts | 193° |
| 2026-04-17 12:49 | 50.04428 | 8.56849 | 374 ft | 19 kts | 190° |
| 2026-04-17 12:49 | 50.04341 | 8.56826 | 368 ft | 1 kts | 190° |
| 2026-04-17 12:49 | 50.04329 | 8.56823 | 368 ft | 7 kts | 190° |
| 2026-04-17 12:49 | 50.04273 | 8.56810 | 369 ft | 0 kts | 169° |
| 2026-04-17 12:50 | 50.04260 | 8.56868 | 368 ft | 8 kts | 63° |
| 2026-04-17 12:50 | 50.04286 | 8.56947 | 371 ft | 8 kts | 66° |
| 2026-04-17 12:50 | 50.04312 | 8.57051 | 373 ft | 14 kts | 69° |
| 2026-04-17 12:50 | 50.04354 | 8.57223 | 368 ft | 19 kts | 69° |
| 2026-04-17 12:51 | 50.04402 | 8.57423 | 370 ft | 21 kts | 69° |
| 2026-04-17 12:51 | 50.04451 | 8.57627 | 370 ft | 21 kts | 69° |
| 2026-04-17 12:51 | 50.04502 | 8.57846 | 374 ft | 22 kts | 70° |
| 2026-04-17 12:51 | 50.04556 | 8.58069 | 372 ft | 21 kts | 69° |
| 2026-04-17 12:52 | 50.04607 | 8.58288 | 371 ft | 22 kts | 70° |
| 2026-04-17 12:52 | 50.04655 | 8.58512 | 371 ft | 17 kts | 89° |
| 2026-04-17 12:52 | 50.04607 | 8.58584 | 369 ft | 9 kts | 162° |
| 2026-04-17 12:52 | 50.04539 | 8.58618 | 377 ft | 14 kts | 163° |
| 2026-04-17 12:53 | 50.04479 | 8.58564 | 373 ft | 12 kts | 246° |
| 2026-04-17 12:53 | 50.04405 | 8.58253 | 374 ft | 66 kts | 250° |
| 2026-04-17 12:53 | 50.04145 | 8.57157 | 374 ft | 150 kts | 250° |
| 2026-04-17 12:53 | 50.03718 | 8.55387 | 682 ft | 188 kts | 251° |
| 2026-04-17 12:54 | 50.03274 | 8.53524 | 1762 ft | 181 kts | 249° |
| 2026-04-17 12:54 | 50.02811 | 8.51628 | 2573 ft | 194 kts | 246° |
| 2026-04-17 12:54 | 50.02046 | 8.49873 | 3320 ft | 202 kts | 223° |
| 2026-04-17 12:54 | 50.01238 | 8.49080 | 3752 ft | 214 kts | 203° |
| 2026-04-17 12:55 | 49.99800 | 8.48389 | 4717 ft | 217 kts | 194° |
| 2026-04-17 12:55 | 49.97847 | 8.47677 | 6075 ft | 219 kts | 193° |
| 2026-04-17 12:55 | 49.96351 | 8.47113 | 6985 ft | 222 kts | 195° |
| 2026-04-17 12:55 | 49.94823 | 8.46458 | 7686 ft | 235 kts | 196° |
| 2026-04-17 12:56 | 49.93750 | 8.45943 | 8151 ft | 243 kts | 201° |
| 2026-04-17 12:56 | 49.92271 | 8.44604 | 8927 ft | 251 kts | 223° |
| 2026-04-17 12:56 | 49.91297 | 8.42347 | 9767 ft | 257 kts | 251° |
| 2026-04-17 12:56 | 49.91114 | 8.39621 | 10590 ft | 262 kts | 278° |
| 2026-04-17 12:57 | 49.91766 | 8.36977 | 11440 ft | 265 kts | 304° |
| 2026-04-17 12:57 | 49.93100 | 8.34940 | 12137 ft | 280 kts | 327° |
| 2026-04-17 12:57 | 49.94997 | 8.33816 | 12488 ft | 305 kts | 343° |
| 2026-04-17 12:57 | 49.97087 | 8.32750 | 12820 ft | 328 kts | 335° |
| 2026-04-17 12:58 | 49.99247 | 8.31277 | 13158 ft | 350 kts | 336° |
| 2026-04-17 12:58 | 50.01572 | 8.29789 | 13487 ft | 371 kts | 338° |
| 2026-04-17 12:58 | 50.04134 | 8.28791 | 13866 ft | 390 kts | 352° |
| 2026-04-17 12:58 | 50.06881 | 8.28989 | 14443 ft | 401 kts | 10° |
| 2026-04-17 12:59 | 50.09595 | 8.30162 | 15092 ft | 408 kts | 16° |
| 2026-04-17 12:59 | 50.12300 | 8.31580 | 15757 ft | 413 kts | 17° |
| 2026-04-17 12:59 | 50.15037 | 8.33047 | 16439 ft | 418 kts | 17° |
| 2026-04-17 12:59 | 50.17803 | 8.34523 | 17113 ft | 423 kts | 17° |
| 2026-04-17 13:00 | 50.20606 | 8.36010 | 17772 ft | 427 kts | 17° |
| 2026-04-17 13:00 | 50.23435 | 8.37506 | 18435 ft | 432 kts | 17° |
| 2026-04-17 13:00 | 50.26293 | 8.39015 | 19023 ft | 436 kts | 17° |
| 2026-04-17 13:00 | 50.29179 | 8.40545 | 19631 ft | 439 kts | 17° |
| 2026-04-17 13:01 | 50.32035 | 8.42091 | 20282 ft | 439 kts | 17° |
| 2026-04-17 13:01 | 50.34894 | 8.43652 | 21366 ft | 429 kts | 17° |
| 2026-04-17 13:01 | 50.37682 | 8.45178 | 22512 ft | 419 kts | 17° |
| 2026-04-17 13:01 | 50.40416 | 8.46674 | 23502 ft | 414 kts | 16° |
| 2026-04-17 13:02 | 50.43151 | 8.48169 | 24013 ft | 419 kts | 16° |
| 2026-04-17 13:02 | 50.45926 | 8.49685 | 24174 ft | 423 kts | 16° |
| 2026-04-17 13:02 | 50.48725 | 8.51130 | 24200 ft | 422 kts | 14° |
| 2026-04-17 13:02 | 50.51534 | 8.52484 | 24199 ft | 422 kts | 14° |
| 2026-04-17 13:03 | 50.54350 | 8.53826 | 24199 ft | 422 kts | 14° |
| 2026-04-17 13:03 | 50.57162 | 8.55167 | 24208 ft | 423 kts | 14° |
| 2026-04-17 13:03 | 50.59978 | 8.56514 | 24200 ft | 423 kts | 14° |
| 2026-04-17 13:03 | 50.62788 | 8.57861 | 24199 ft | 423 kts | 14° |
| 2026-04-17 13:04 | 50.65603 | 8.59213 | 24203 ft | 423 kts | 14° |
| 2026-04-17 13:04 | 50.68383 | 8.60551 | 24201 ft | 423 kts | 14° |
| 2026-04-17 13:04 | 50.71195 | 8.61906 | 24199 ft | 423 kts | 14° |
| 2026-04-17 13:04 | 50.74012 | 8.63262 | 24197 ft | 422 kts | 13° |
| 2026-04-17 13:05 | 50.76871 | 8.64270 | 24196 ft | 419 kts | 4° |
| 2026-04-17 13:05 | 50.79764 | 8.64279 | 24199 ft | 420 kts | 350° |
| 2026-04-17 13:05 | 50.80265 | 8.64164 | 24197 ft | 422 kts | 347° |
| 2026-04-17 13:05 | 50.82662 | 8.63082 | 24192 ft | 427 kts | 335° |
| 2026-04-17 13:06 | 50.85187 | 8.60797 | 24196 ft | 411 kts | 321° |
| 2026-04-17 13:06 | 50.87267 | 8.57767 | 24198 ft | 404 kts | 313° |
| 2026-04-17 13:06 | 50.89168 | 8.54492 | 24196 ft | 403 kts | 310° |
| 2026-04-17 13:06 | 50.90990 | 8.51090 | 24196 ft | 403 kts | 308° |
| 2026-04-17 13:07 | 50.92759 | 8.47677 | 24194 ft | 403 kts | 308° |
| 2026-04-17 13:07 | 50.94535 | 8.44228 | 24195 ft | 405 kts | 308° |
| 2026-04-17 13:07 | 50.96323 | 8.40779 | 24197 ft | 405 kts | 308° |
| 2026-04-17 13:07 | 50.98125 | 8.37335 | 24198 ft | 405 kts | 308° |
| 2026-04-17 13:08 | 50.99948 | 8.33919 | 24197 ft | 406 kts | 311° |
| 2026-04-17 13:08 | 51.02020 | 8.30872 | 24200 ft | 408 kts | 321° |
| 2026-04-17 13:08 | 51.04364 | 8.28322 | 24207 ft | 409 kts | 325° |
| 2026-04-17 13:08 | 51.06792 | 8.25962 | 24197 ft | 409 kts | 327° |
| 2026-04-17 13:09 | 51.09266 | 8.23710 | 24199 ft | 410 kts | 328° |
| 2026-04-17 13:09 | 51.11757 | 8.21514 | 24199 ft | 410 kts | 329° |
| 2026-04-17 13:09 | 51.14227 | 8.19360 | 24194 ft | 410 kts | 329° |
| 2026-04-17 13:09 | 51.16728 | 8.17173 | 24198 ft | 410 kts | 329° |
| 2026-04-17 13:10 | 51.19223 | 8.14977 | 24196 ft | 410 kts | 328° |
| 2026-04-17 13:10 | 51.21687 | 8.12794 | 24199 ft | 397 kts | 328° |
| 2026-04-17 13:10 | 51.24051 | 8.10694 | 24200 ft | 380 kts | 328° |
| 2026-04-17 13:10 | 51.26311 | 8.08677 | 24204 ft | 365 kts | 328° |
| 2026-04-17 13:11 | 51.28483 | 8.06733 | 24199 ft | 349 kts | 327° |
| 2026-04-17 13:11 | 51.30556 | 8.04873 | 24207 ft | 335 kts | 327° |
| 2026-04-17 13:11 | 51.32547 | 8.03082 | 24198 ft | 322 kts | 327° |
| 2026-04-17 13:11 | 51.34456 | 8.01364 | 24203 ft | 307 kts | 327° |
| 2026-04-17 13:12 | 51.36284 | 7.99716 | 24203 ft | 297 kts | 327° |
| 2026-04-17 13:12 | 51.39851 | 7.96477 | 24204 ft | 295 kts | 325° |
| 2026-04-17 13:12 | 51.41556 | 7.94676 | 24205 ft | 293 kts | 321° |
| 2026-04-17 13:13 | 51.43224 | 7.92786 | 24208 ft | 293 kts | 320° |
| 2026-04-17 13:13 | 51.44873 | 7.90863 | 24206 ft | 293 kts | 320° |
| 2026-04-17 13:13 | 51.46510 | 7.88922 | 24207 ft | 293 kts | 320° |
| 2026-04-17 13:13 | 51.48143 | 7.86971 | 24207 ft | 293 kts | 320° |
| 2026-04-17 13:14 | 51.49756 | 7.85038 | 24206 ft | 293 kts | 320° |
| 2026-04-17 13:14 | 51.51390 | 7.83078 | 24208 ft | 293 kts | 320° |
| 2026-04-17 13:14 | 51.53025 | 7.81120 | 24209 ft | 293 kts | 320° |
| 2026-04-17 13:14 | 51.54659 | 7.79163 | 24210 ft | 293 kts | 320° |
| 2026-04-17 13:15 | 51.56293 | 7.77207 | 24216 ft | 292 kts | 320° |
| 2026-04-17 13:15 | 51.57924 | 7.75254 | 24211 ft | 292 kts | 320° |
| 2026-04-17 13:15 | 51.59553 | 7.73302 | 24208 ft | 292 kts | 320° |
| 2026-04-17 13:15 | 51.61182 | 7.71349 | 24209 ft | 293 kts | 319° |
| 2026-04-17 13:16 | 51.62819 | 7.69383 | 24212 ft | 294 kts | 319° |
| 2026-04-17 13:16 | 51.64457 | 7.67414 | 24209 ft | 294 kts | 319° |
| 2026-04-17 13:16 | 51.66079 | 7.65463 | 24214 ft | 300 kts | 319° |
| 2026-04-17 13:16 | 51.67812 | 7.63368 | 24207 ft | 322 kts | 320° |
| 2026-04-17 13:17 | 51.69665 | 7.61128 | 24202 ft | 343 kts | 320° |
| 2026-04-17 13:17 | 51.71630 | 7.58754 | 24201 ft | 364 kts | 320° |
| 2026-04-17 13:17 | 51.73711 | 7.56241 | 24200 ft | 383 kts | 320° |
| 2026-04-17 13:17 | 51.75894 | 7.53602 | 24197 ft | 401 kts | 320° |
| 2026-04-17 13:18 | 51.78168 | 7.50853 | 24197 ft | 412 kts | 320° |
| 2026-04-17 13:18 | 51.80470 | 7.48069 | 24195 ft | 413 kts | 320° |
| 2026-04-17 13:18 | 51.82775 | 7.45277 | 24200 ft | 413 kts | 320° |
| 2026-04-17 13:18 | 51.85075 | 7.42486 | 24199 ft | 413 kts | 320° |
| 2026-04-17 13:19 | 51.87375 | 7.39689 | 24191 ft | 413 kts | 320° |
| 2026-04-17 13:19 | 51.89674 | 7.36889 | 24189 ft | 413 kts | 320° |
| 2026-04-17 13:19 | 51.91973 | 7.34085 | 24190 ft | 413 kts | 320° |
| 2026-04-17 13:19 | 51.94272 | 7.31276 | 24189 ft | 413 kts | 320° |
| 2026-04-17 13:20 | 51.96567 | 7.28469 | 24195 ft | 413 kts | 320° |
| 2026-04-17 13:20 | 51.98836 | 7.25689 | 24192 ft | 414 kts | 320° |
| 2026-04-17 13:20 | 52.01137 | 7.22867 | 24193 ft | 414 kts | 320° |
| 2026-04-17 13:20 | 52.03432 | 7.20048 | 24192 ft | 414 kts | 320° |
| 2026-04-17 13:21 | 52.05746 | 7.17199 | 24191 ft | 423 kts | 320° |
| 2026-04-17 13:21 | 52.08134 | 7.14254 | 24194 ft | 436 kts | 320° |
| 2026-04-17 13:21 | 52.10563 | 7.11258 | 24187 ft | 439 kts | 320° |
| 2026-04-17 13:21 | 52.13000 | 7.08251 | 24183 ft | 439 kts | 320° |
| 2026-04-17 13:22 | 52.15429 | 7.05249 | 24191 ft | 439 kts | 320° |
| 2026-04-17 13:22 | 52.17870 | 7.02228 | 24185 ft | 439 kts | 320° |
| 2026-04-17 13:22 | 52.20292 | 6.99199 | 24185 ft | 439 kts | 318° |
| 2026-04-17 13:22 | 52.22478 | 6.95771 | 24191 ft | 435 kts | 309° |
| 2026-04-17 13:23 | 52.24366 | 6.91920 | 24203 ft | 433 kts | 302° |
| 2026-04-17 13:23 | 52.25835 | 6.87674 | 24190 ft | 423 kts | 292° |
| 2026-04-17 13:23 | 52.26875 | 6.83371 | 24201 ft | 402 kts | 288° |
| 2026-04-17 13:23 | 52.27770 | 6.79147 | 24132 ft | 386 kts | 287° |
| 2026-04-17 13:24 | 52.28601 | 6.75043 | 23950 ft | 375 kts | 286° |
| 2026-04-17 13:24 | 52.29400 | 6.71029 | 23465 ft | 371 kts | 286° |
| 2026-04-17 13:24 | 52.30193 | 6.67001 | 22717 ft | 373 kts | 285° |
| 2026-04-17 13:24 | 52.30988 | 6.62941 | 21970 ft | 375 kts | 285° |
| 2026-04-17 13:25 | 52.31781 | 6.58879 | 21257 ft | 374 kts | 285° |
| 2026-04-17 13:25 | 52.32560 | 6.54885 | 20651 ft | 364 kts | 285° |
| 2026-04-17 13:25 | 52.33316 | 6.51000 | 20068 ft | 354 kts | 285° |
| 2026-04-17 13:25 | 52.34054 | 6.47201 | 19486 ft | 346 kts | 285° |
| 2026-04-17 13:26 | 52.34771 | 6.43494 | 18938 ft | 338 kts | 285° |
| 2026-04-17 13:26 | 52.35473 | 6.39860 | 18371 ft | 332 kts | 284° |
| 2026-04-17 13:26 | 52.36161 | 6.36288 | 17731 ft | 326 kts | 284° |
| 2026-04-17 13:26 | 52.36826 | 6.32828 | 17111 ft | 320 kts | 284° |
| 2026-04-17 13:27 | 52.37498 | 6.29328 | 16495 ft | 316 kts | 284° |
| 2026-04-17 13:27 | 52.38144 | 6.25952 | 15903 ft | 314 kts | 284° |
| 2026-04-17 13:27 | 52.38795 | 6.22548 | 15310 ft | 313 kts | 284° |
| 2026-04-17 13:27 | 52.39448 | 6.19119 | 14726 ft | 318 kts | 284° |
| 2026-04-17 13:28 | 52.40104 | 6.15679 | 14206 ft | 314 kts | 284° |
| 2026-04-17 13:28 | 52.40753 | 6.12271 | 13451 ft | 313 kts | 284° |
| 2026-04-17 13:28 | 52.41400 | 6.08864 | 12688 ft | 312 kts | 284° |
| 2026-04-17 13:28 | 52.42042 | 6.05483 | 12048 ft | 310 kts | 284° |
| 2026-04-17 13:29 | 52.42679 | 6.02115 | 11542 ft | 309 kts | 284° |
| 2026-04-17 13:29 | 52.43314 | 5.98754 | 11033 ft | 308 kts | 284° |
| 2026-04-17 13:29 | 52.43944 | 5.95418 | 10635 ft | 301 kts | 284° |
| 2026-04-17 13:29 | 52.44547 | 5.92232 | 10373 ft | 285 kts | 284° |
| 2026-04-17 13:30 | 52.45119 | 5.89199 | 10207 ft | 273 kts | 283° |
| 2026-04-17 13:30 | 52.45677 | 5.86217 | 10149 ft | 274 kts | 283° |
| 2026-04-17 13:30 | 52.46235 | 5.83227 | 10019 ft | 275 kts | 283° |
| 2026-04-17 13:30 | 52.46787 | 5.80269 | 9515 ft | 274 kts | 283° |
| 2026-04-17 13:31 | 52.47345 | 5.77275 | 9083 ft | 274 kts | 284° |
| 2026-04-17 13:31 | 52.47900 | 5.74296 | 8689 ft | 272 kts | 284° |
| 2026-04-17 13:31 | 52.48453 | 5.71326 | 8287 ft | 271 kts | 284° |
| 2026-04-17 13:31 | 52.49002 | 5.68372 | 7881 ft | 270 kts | 284° |
| 2026-04-17 13:32 | 52.49549 | 5.65427 | 7505 ft | 269 kts | 284° |
| 2026-04-17 13:32 | 52.50092 | 5.62495 | 7230 ft | 267 kts | 284° |
| 2026-04-17 13:32 | 52.50628 | 5.59585 | 7213 ft | 267 kts | 283° |
| 2026-04-17 13:32 | 52.50927 | 5.56600 | 7210 ft | 264 kts | 268° |
| 2026-04-17 13:33 | 52.50818 | 5.53595 | 7067 ft | 263 kts | 261° |
| 2026-04-17 13:33 | 52.50510 | 5.50646 | 6664 ft | 262 kts | 256° |
| 2026-04-17 13:33 | 52.50099 | 5.47745 | 6264 ft | 261 kts | 253° |
| 2026-04-17 13:33 | 52.49652 | 5.44865 | 5891 ft | 258 kts | 253° |
| 2026-04-17 13:34 | 52.49217 | 5.42056 | 5515 ft | 256 kts | 253° |
| 2026-04-17 13:34 | 52.48794 | 5.39233 | 5249 ft | 250 kts | 254° |
| 2026-04-17 13:34 | 52.48399 | 5.36478 | 5210 ft | 248 kts | 254° |
| 2026-04-17 13:34 | 52.48013 | 5.33715 | 5210 ft | 249 kts | 255° |
| 2026-04-17 13:35 | 52.47884 | 5.30875 | 5207 ft | 253 kts | 274° |
| 2026-04-17 13:35 | 52.48246 | 5.28039 | 5207 ft | 255 kts | 282° |
| 2026-04-17 13:35 | 52.48713 | 5.25229 | 5210 ft | 256 kts | 282° |
| 2026-04-17 13:35 | 52.49189 | 5.22417 | 5204 ft | 256 kts | 282° |
| 2026-04-17 13:36 | 52.49667 | 5.19599 | 5202 ft | 256 kts | 282° |
| 2026-04-17 13:36 | 52.50143 | 5.16781 | 5202 ft | 256 kts | 282° |
| 2026-04-17 13:36 | 52.50617 | 5.13963 | 5023 ft | 256 kts | 282° |
| 2026-04-17 13:36 | 52.51087 | 5.11185 | 4664 ft | 255 kts | 282° |
| 2026-04-17 13:37 | 52.51559 | 5.08394 | 4311 ft | 253 kts | 282° |
| 2026-04-17 13:37 | 52.51991 | 5.05600 | 3949 ft | 251 kts | 279° |
| 2026-04-17 13:37 | 52.52327 | 5.02797 | 3583 ft | 250 kts | 278° |
| 2026-04-17 13:37 | 52.52637 | 5.00010 | 3305 ft | 245 kts | 277° |
| 2026-04-17 13:38 | 52.52938 | 4.97315 | 3200 ft | 235 kts | 277° |
| 2026-04-17 13:38 | 52.53264 | 4.94718 | 2923 ft | 232 kts | 277° |
| 2026-04-17 13:38 | 52.53600 | 4.92105 | 2499 ft | 235 kts | 277° |
| 2026-04-17 13:38 | 52.53936 | 4.89456 | 2102 ft | 237 kts | 277° |
| 2026-04-17 13:39 | 52.54269 | 4.86858 | 1985 ft | 225 kts | 277° |
| 2026-04-17 13:39 | 52.54583 | 4.84465 | 1992 ft | 203 kts | 278° |
| 2026-04-17 13:39 | 52.54869 | 4.82301 | 1972 ft | 184 kts | 277° |
| 2026-04-17 13:39 | 52.55140 | 4.80285 | 1976 ft | 179 kts | 277° |
| 2026-04-17 13:40 | 52.55417 | 4.78281 | 1973 ft | 180 kts | 277° |
| 2026-04-17 13:40 | 52.55694 | 4.76281 | 1970 ft | 180 kts | 277° |
| 2026-04-17 13:40 | 52.55933 | 4.74269 | 1968 ft | 178 kts | 269° |
| 2026-04-17 13:40 | 52.55645 | 4.72382 | 1971 ft | 169 kts | 232° |
| 2026-04-17 13:41 | 52.54717 | 4.71322 | 1967 ft | 167 kts | 192° |
| 2026-04-17 13:41 | 52.53949 | 4.71368 | 1981 ft | 170 kts | 168° |
| 2026-04-17 13:41 | 52.52840 | 4.72125 | 1968 ft | 173 kts | 165° |
| 2026-04-17 13:41 | 52.51287 | 4.72516 | 1969 ft | 170 kts | 182° |
| 2026-04-17 13:42 | 52.50102 | 4.72457 | 1968 ft | 170 kts | 185° |
| 2026-04-17 13:42 | 52.49303 | 4.72384 | 1971 ft | 170 kts | 185° |
| 2026-04-17 13:42 | 52.48140 | 4.72274 | 1964 ft | 169 kts | 185° |
| 2026-04-17 13:42 | 52.46965 | 4.72170 | 1967 ft | 169 kts | 185° |
| 2026-04-17 13:43 | 52.45787 | 4.72068 | 1930 ft | 170 kts | 185° |
| 2026-04-17 13:43 | 52.44607 | 4.71963 | 1726 ft | 170 kts | 185° |
| 2026-04-17 13:43 | 52.43426 | 4.71855 | 1477 ft | 170 kts | 185° |
| 2026-04-17 13:43 | 52.42271 | 4.71749 | 1246 ft | 162 kts | 186° |
| 2026-04-17 13:44 | 52.41182 | 4.71649 | 1046 ft | 151 kts | 187° |
| 2026-04-17 13:44 | 52.40149 | 4.71554 | 829 ft | 145 kts | 186° |
| 2026-04-17 13:44 | 52.39170 | 4.71464 | 634 ft | 136 kts | 186° |
| 2026-04-17 13:44 | 52.38260 | 4.71381 | 466 ft | 128 kts | 185° |
| 2026-04-17 13:45 | 52.37388 | 4.71303 | 305 ft | 126 kts | 185° |
| 2026-04-17 13:45 | 52.36509 | 4.71212 | 138 ft | 125 kts | 185° |
| 2026-04-17 13:45 | 52.35652 | 4.71140 | 8 ft | 117 kts | 184° |
| 2026-04-17 13:45 | 52.34925 | 4.71072 | 2 ft | 92 kts | 184° |
| 2026-04-17 13:46 | 52.34461 | 4.71050 | -1 ft | 53 kts | 171° |
| 2026-04-17 13:46 | 52.34166 | 4.71245 | 1 ft | 34 kts | 154° |
| 2026-04-17 13:46 | 52.33973 | 4.71270 | 1 ft | 25 kts | 183° |
| 2026-04-17 13:46 | 52.33801 | 4.71256 | 1 ft | 24 kts | 183° |
| 2026-04-17 13:47 | 52.33636 | 4.71239 | 1 ft | 23 kts | 184° |
| 2026-04-17 13:47 | 52.33463 | 4.71224 | 1 ft | 28 kts | 182° |
| 2026-04-17 13:47 | 52.33255 | 4.71226 | 1 ft | 28 kts | 156° |
| 2026-04-17 13:47 | 52.33135 | 4.71448 | 1 ft | 21 kts | 102° |
| 2026-04-17 13:48 | 52.33149 | 4.71620 | 1 ft | 14 kts | 104° |
| 2026-04-17 13:48 | 52.33064 | 4.71809 | 1 ft | 25 kts | 132° |
| 2026-04-17 13:48 | 52.32935 | 4.72048 | 1 ft | 31 kts | 131° |
| 2026-04-17 13:48 | 52.32787 | 4.72320 | 1 ft | 27 kts | 131° |
| 2026-04-17 13:49 | 52.32647 | 4.72574 | 1 ft | 33 kts | 141° |
| 2026-04-17 13:49 | 52.32461 | 4.72832 | 1 ft | 37 kts | 140° |
| 2026-04-17 13:49 | 52.32304 | 4.73052 | 1 ft | 30 kts | 138° |
| 2026-04-17 13:49 | 52.32188 | 4.73216 | 1 ft | 14 kts | 139° |
| 2026-04-17 13:50 | 52.32090 | 4.73362 | 1 ft | 28 kts | 127° |
| 2026-04-17 13:50 | 52.32051 | 4.73695 | 1 ft | 28 kts | 93° |
| 2026-04-17 13:50 | 52.32044 | 4.73924 | 0 ft | 21 kts | 92° |
| 2026-04-17 13:50 | 52.32010 | 4.74166 | 0 ft | 20 kts | 143° |
| 2026-04-17 13:51 | 52.31875 | 4.74183 | 1 ft | 22 kts | 184° |
| 2026-04-17 13:51 | 52.31709 | 4.74166 | 1 ft | 26 kts | 183° |
| 2026-04-17 13:51 | 52.31547 | 4.74151 | 1 ft | 17 kts | 183° |
| 2026-04-17 13:51 | 52.31417 | 4.74146 | 1 ft | 14 kts | 164° |
| 2026-04-17 13:52 | 52.31389 | 4.74253 | 1 ft | 14 kts | 87° |
| 2026-04-17 13:52 | 52.31397 | 4.74496 | 1 ft | 20 kts | 86° |
| 2026-04-17 13:52 | 52.31405 | 4.74729 | 1 ft | 22 kts | 87° |
| 2026-04-17 13:52 | 52.31411 | 4.74984 | 1 ft | 23 kts | 88° |
| 2026-04-17 13:53 | 52.31419 | 4.75239 | 1 ft | 22 kts | 87° |
| 2026-04-17 13:53 | 52.31418 | 4.75413 | 1 ft | 9 kts | 118° |
| 2026-04-17 13:53 | 52.31353 | 4.75447 | 1 ft | 11 kts | 177° |
| 2026-04-17 13:53 | 52.31268 | 4.75455 | 1 ft | 14 kts | 176° |
| 2026-04-17 13:54 | 52.31144 | 4.75478 | 1 ft | 7 kts | 128° |
| 2026-04-17 13:54 | 52.31101 | 4.75538 | 1 ft | 9 kts | 147° |